sensor_id;sensor_type;location;lat;lon;timestamp;P1;durP1;ratioP1;P2;durP2;ratioP2
1753;SDS011;58380;48.312;9.246;2022-12-18T07:34:11;66.90;;;20.48;;
1753;SDS011;58380;48.312;9.246;2022-12-18T07:36:37;67.05;;;21.48;;
1753;SDS011;58380;48.312;9.246;2022-12-18T07:39:03;52.20;;;19.75;;
1753;SDS011;58380;48.312;9.246;2022-12-18T07:41:29;59.22;;;18.92;;
1753;SDS011;58380;48.312;9.246;2022-12-18T07:46:22;53.70;;;20.83;;
1753;SDS011;58380;48.312;9.246;2022-12-18T07:48:47;64.50;;;20.92;;
1753;SDS011;58380;48.312;9.246;2022-12-18T07:51:13;61.67;;;20.98;;
1753;SDS011;58380;48.312;9.246;2022-12-18T07:53:39;54.88;;;18.58;;
1753;SDS011;58380;48.312;9.246;2022-12-18T07:56:06;57.33;;;18.90;;
1753;SDS011;58380;48.312;9.246;2022-12-18T07:58:35;59.38;;;21.02;;
1753;SDS011;58380;48.312;9.246;2022-12-18T08:01:05;57.90;;;21.65;;
1753;SDS011;58380;48.312;9.246;2022-12-18T08:03:36;56.95;;;21.42;;
1753;SDS011;58380;48.312;9.246;2022-12-18T08:06:04;165.57;;;57.28;;
1753;SDS011;58380;48.312;9.246;2022-12-18T08:08:34;53.58;;;21.00;;
1753;SDS011;58380;48.312;9.246;2022-12-18T08:11:01;70.88;;;27.05;;
1753;SDS011;58380;48.312;9.246;2022-12-18T08:13:27;53.75;;;21.17;;
1753;SDS011;58380;48.312;9.246;2022-12-18T08:16:00;57.72;;;21.02;;
1753;SDS011;58380;48.312;9.246;2022-12-18T08:18:33;56.08;;;22.27;;
1753;SDS011;58380;48.312;9.246;2022-12-18T08:21:34;59.30;;;20.65;;
1753;SDS011;58380;48.312;9.246;2022-12-18T08:23:56;57.25;;;20.92;;
1753;SDS011;58380;48.312;9.246;2022-12-18T08:26:25;58.17;;;22.45;;
1753;SDS011;58380;48.312;9.246;2022-12-18T08:28:54;61.47;;;21.60;;
1753;SDS011;58380;48.312;9.246;2022-12-18T08:31:21;58.38;;;20.92;;
1753;SDS011;58380;48.312;9.246;2022-12-18T08:33:51;53.50;;;19.20;;
1753;SDS011;58380;48.312;9.246;2022-12-18T08:36:18;50.63;;;19.05;;
1753;SDS011;58380;48.312;9.246;2022-12-18T08:38:45;52.10;;;18.17;;
1753;SDS011;58380;48.312;9.246;2022-12-18T08:41:11;60.60;;;19.67;;
1753;SDS011;58380;48.312;9.246;2022-12-18T08:43:40;57.45;;;20.80;;
1753;SDS011;58380;48.312;9.246;2022-12-18T08:46:24;56.70;;;19.58;;
1753;SDS011;58380;48.312;9.246;2022-12-18T08:48:52;56.47;;;20.73;;
1753;SDS011;58380;48.312;9.246;2022-12-18T08:51:20;53.83;;;21.15;;
1753;SDS011;58380;48.312;9.246;2022-12-18T08:53:46;61.17;;;23.67;;
1753;SDS011;58380;48.312;9.246;2022-12-18T08:56:12;57.08;;;23.65;;
1753;SDS011;58380;48.312;9.246;2022-12-18T08:58:39;57.45;;;22.38;;
1753;SDS011;58380;48.312;9.246;2022-12-18T09:01:06;56.67;;;20.75;;
1753;SDS011;58380;48.312;9.246;2022-12-18T09:03:34;52.42;;;19.75;;
1753;SDS011;58380;48.312;9.246;2022-12-18T09:06:02;53.40;;;19.75;;
1753;SDS011;58380;48.312;9.246;2022-12-18T09:10:54;53.97;;;19.88;;
1753;SDS011;58380;48.312;9.246;2022-12-18T09:13:20;57.90;;;20.08;;
1753;SDS011;58380;48.312;9.246;2022-12-18T09:15:48;55.30;;;19.30;;
1753;SDS011;58380;48.312;9.246;2022-12-18T09:18:18;59.63;;;22.45;;
1753;SDS011;58380;48.312;9.246;2022-12-18T09:20:46;58.08;;;22.67;;
1753;SDS011;58380;48.312;9.246;2022-12-18T09:23:12;69.93;;;23.13;;
1753;SDS011;58380;48.312;9.246;2022-12-18T09:25:38;66.50;;;23.38;;
1753;SDS011;58380;48.312;9.246;2022-12-18T09:28:09;59.90;;;21.92;;
1753;SDS011;58380;48.312;9.246;2022-12-18T09:30:38;67.32;;;19.88;;
1753;SDS011;58380;48.312;9.246;2022-12-18T09:33:06;59.28;;;19.00;;
1753;SDS011;58380;48.312;9.246;2022-12-18T09:35:32;58.45;;;21.52;;
1753;SDS011;58380;48.312;9.246;2022-12-18T09:37:57;51.50;;;17.48;;
1753;SDS011;58380;48.312;9.246;2022-12-18T09:40:25;63.40;;;20.90;;
1753;SDS011;58380;48.312;9.246;2022-12-18T09:43:04;55.00;;;21.83;;
1753;SDS011;58380;48.312;9.246;2022-12-18T09:45:39;59.13;;;22.00;;
1753;SDS011;58380;48.312;9.246;2022-12-18T09:48:20;52.17;;;20.95;;
1753;SDS011;58380;48.312;9.246;2022-12-18T09:50:54;54.72;;;21.08;;
1753;SDS011;58380;48.312;9.246;2022-12-18T09:53:31;54.88;;;21.38;;
1753;SDS011;58380;48.312;9.246;2022-12-18T09:56:03;55.88;;;21.15;;
1753;SDS011;58380;48.312;9.246;2022-12-18T10:01:14;58.42;;;22.13;;
1753;SDS011;58380;48.312;9.246;2022-12-18T10:03:46;66.63;;;23.13;;
1753;SDS011;58380;48.312;9.246;2022-12-18T10:06:14;56.97;;;21.60;;
1753;SDS011;58380;48.312;9.246;2022-12-18T10:12:08;61.92;;;23.25;;
1753;SDS011;58380;48.312;9.246;2022-12-18T10:18:00;63.10;;;22.95;;
1753;SDS011;58380;48.312;9.246;2022-12-18T10:20:44;60.47;;;24.42;;
1753;SDS011;58380;48.312;9.246;2022-12-18T10:26:08;60.00;;;20.58;;
1753;SDS011;58380;48.312;9.246;2022-12-18T10:28:37;55.10;;;21.60;;
1753;SDS011;58380;48.312;9.246;2022-12-18T10:31:06;54.88;;;21.48;;
1753;SDS011;58380;48.312;9.246;2022-12-18T10:33:41;56.83;;;23.42;;
1753;SDS011;58380;48.312;9.246;2022-12-18T10:36:07;61.50;;;23.63;;
1753;SDS011;58380;48.312;9.246;2022-12-18T10:38:33;56.17;;;22.80;;
1753;SDS011;58380;48.312;9.246;2022-12-18T10:41:02;51.63;;;19.80;;
1753;SDS011;58380;48.312;9.246;2022-12-18T10:44:10;56.65;;;19.70;;
1753;SDS011;58380;48.312;9.246;2022-12-18T10:46:48;47.90;;;18.58;;
1753;SDS011;58380;48.312;9.246;2022-12-18T10:49:27;47.20;;;17.95;;
1753;SDS011;58380;48.312;9.246;2022-12-18T10:54:30;44.97;;;15.10;;
1753;SDS011;58380;48.312;9.246;2022-12-18T11:00:20;54.90;;;21.88;;
1753;SDS011;58380;48.312;9.246;2022-12-18T11:02:50;51.97;;;19.73;;
1753;SDS011;58380;48.312;9.246;2022-12-18T11:05:37;45.90;;;17.88;;
1753;SDS011;58380;48.312;9.246;2022-12-18T11:08:02;47.58;;;17.60;;
1753;SDS011;58380;48.312;9.246;2022-12-18T11:10:37;46.95;;;17.45;;
1753;SDS011;58380;48.312;9.246;2022-12-18T11:13:24;46.97;;;18.40;;
1753;SDS011;58380;48.312;9.246;2022-12-18T11:15:54;45.25;;;17.10;;
1753;SDS011;58380;48.312;9.246;2022-12-18T11:18:27;42.17;;;16.15;;
1753;SDS011;58380;48.312;9.246;2022-12-18T11:23:37;45.15;;;17.15;;
1753;SDS011;58380;48.312;9.246;2022-12-18T11:26:14;47.08;;;17.90;;
1753;SDS011;58380;48.312;9.246;2022-12-18T11:28:40;42.67;;;17.65;;
1753;SDS011;58380;48.312;9.246;2022-12-18T11:31:17;44.50;;;17.13;;
1753;SDS011;58380;48.312;9.246;2022-12-18T11:36:51;46.55;;;16.90;;
1753;SDS011;58380;48.312;9.246;2022-12-18T11:39:24;45.08;;;17.30;;
1753;SDS011;58380;48.312;9.246;2022-12-18T11:42:20;42.35;;;16.33;;
1753;SDS011;58380;48.312;9.246;2022-12-18T11:50:32;41.95;;;15.75;;
1753;SDS011;58380;48.312;9.246;2022-12-18T11:53:13;43.23;;;18.20;;
1753;SDS011;58380;48.312;9.246;2022-12-18T11:55:41;40.77;;;16.63;;
1753;SDS011;58380;48.312;9.246;2022-12-18T12:01:13;45.92;;;18.10;;
1753;SDS011;58380;48.312;9.246;2022-12-18T12:10:04;45.08;;;17.55;;
1753;SDS011;58380;48.312;9.246;2022-12-18T12:21:42;43.40;;;16.80;;
1753;SDS011;58380;48.312;9.246;2022-12-18T12:30:52;40.00;;;15.77;;
1753;SDS011;58380;48.312;9.246;2022-12-18T12:36:24;38.92;;;15.23;;
1753;SDS011;58380;48.312;9.246;2022-12-18T12:39:16;39.95;;;15.30;;
1753;SDS011;58380;48.312;9.246;2022-12-18T12:41:49;42.22;;;16.17;;
1753;SDS011;58380;48.312;9.246;2022-12-18T12:44:44;40.75;;;16.42;;
1753;SDS011;58380;48.312;9.246;2022-12-18T12:47:21;40.85;;;16.23;;
1753;SDS011;58380;48.312;9.246;2022-12-18T12:49:53;40.35;;;16.35;;
1753;SDS011;58380;48.312;9.246;2022-12-18T12:52:28;41.08;;;16.08;;
1753;SDS011;58380;48.312;9.246;2022-12-18T12:55:03;48.55;;;17.50;;
1753;SDS011;58380;48.312;9.246;2022-12-18T12:57:41;41.78;;;17.00;;
1753;SDS011;58380;48.312;9.246;2022-12-18T13:00:16;43.92;;;17.83;;
1753;SDS011;58380;48.312;9.246;2022-12-18T13:08:24;45.83;;;17.50;;
1753;SDS011;58380;48.312;9.246;2022-12-18T13:10:53;45.83;;;18.02;;
1753;SDS011;58380;48.312;9.246;2022-12-18T13:13:51;50.20;;;19.23;;
1753;SDS011;58380;48.312;9.246;2022-12-18T13:16:21;44.75;;;17.42;;
1753;SDS011;58380;48.312;9.246;2022-12-18T13:18:50;45.10;;;17.27;;
1753;SDS011;58380;48.312;9.246;2022-12-18T13:21:37;47.38;;;17.38;;
1753;SDS011;58380;48.312;9.246;2022-12-18T13:26:57;48.03;;;18.95;;
1753;SDS011;58380;48.312;9.246;2022-12-18T13:32:32;48.03;;;18.30;;
1753;SDS011;58380;48.312;9.246;2022-12-18T13:37:54;54.55;;;20.23;;
1753;SDS011;58380;48.312;9.246;2022-12-18T13:41:20;53.17;;;20.35;;
1753;SDS011;58380;48.312;9.246;2022-12-18T13:48:26;51.13;;;19.38;;
1753;SDS011;58380;48.312;9.246;2022-12-18T13:51:04;52.83;;;20.30;;
1753;SDS011;58380;48.312;9.246;2022-12-18T13:54:13;49.30;;;18.33;;
1753;SDS011;58380;48.312;9.246;2022-12-18T13:56:49;49.75;;;19.70;;
1753;SDS011;58380;48.312;9.246;2022-12-18T13:59:16;55.33;;;19.52;;
1753;SDS011;58380;48.312;9.246;2022-12-18T14:01:50;51.22;;;18.80;;
1753;SDS011;58380;48.312;9.246;2022-12-18T14:04:25;45.90;;;19.00;;
1753;SDS011;58380;48.312;9.246;2022-12-18T14:07:05;51.55;;;20.05;;
1753;SDS011;58380;48.312;9.246;2022-12-18T14:09:42;52.67;;;19.35;;
1753;SDS011;58380;48.312;9.246;2022-12-18T14:12:24;47.03;;;19.80;;
1753;SDS011;58380;48.312;9.246;2022-12-18T14:20:55;50.08;;;20.83;;
1753;SDS011;58380;48.312;9.246;2022-12-18T14:23:28;52.88;;;19.10;;
1753;SDS011;58380;48.312;9.246;2022-12-18T14:26:22;50.63;;;19.58;;
1753;SDS011;58380;48.312;9.246;2022-12-18T14:28:55;51.95;;;20.00;;
1753;SDS011;58380;48.312;9.246;2022-12-18T14:31:24;59.88;;;20.98;;
1753;SDS011;58380;48.312;9.246;2022-12-18T14:33:52;51.40;;;19.65;;
1753;SDS011;58380;48.312;9.246;2022-12-18T14:36:21;50.42;;;19.35;;
1753;SDS011;58380;48.312;9.246;2022-12-18T14:38:54;54.97;;;20.52;;
1753;SDS011;58380;48.312;9.246;2022-12-18T14:41:22;56.72;;;21.75;;
1753;SDS011;58380;48.312;9.246;2022-12-18T14:43:50;51.63;;;21.02;;
1753;SDS011;58380;48.312;9.246;2022-12-18T14:46:39;48.03;;;18.55;;
1753;SDS011;58380;48.312;9.246;2022-12-18T14:52:00;51.88;;;19.08;;
1753;SDS011;58380;48.312;9.246;2022-12-18T14:54:30;49.00;;;18.75;;
1753;SDS011;58380;48.312;9.246;2022-12-18T14:57:04;50.28;;;19.00;;
1753;SDS011;58380;48.312;9.246;2022-12-18T14:59:40;50.67;;;19.52;;
1753;SDS011;58380;48.312;9.246;2022-12-18T15:02:25;52.47;;;18.67;;
1753;SDS011;58380;48.312;9.246;2022-12-18T15:05:00;51.00;;;19.30;;
1753;SDS011;58380;48.312;9.246;2022-12-18T15:07:43;53.95;;;19.85;;
1753;SDS011;58380;48.312;9.246;2022-12-18T15:10:19;50.45;;;19.33;;
1753;SDS011;58380;48.312;9.246;2022-12-18T15:18:09;49.13;;;18.58;;
1753;SDS011;58380;48.312;9.246;2022-12-18T15:23:35;57.40;;;19.70;;
1753;SDS011;58380;48.312;9.246;2022-12-18T15:26:11;56.70;;;19.35;;
1753;SDS011;58380;48.312;9.246;2022-12-18T15:28:50;49.70;;;19.08;;
1753;SDS011;58380;48.312;9.246;2022-12-18T15:36:47;54.35;;;19.95;;
1753;SDS011;58380;48.312;9.246;2022-12-18T15:39:12;56.00;;;20.50;;
1753;SDS011;58380;48.312;9.246;2022-12-18T15:41:38;51.75;;;19.23;;
1753;SDS011;58380;48.312;9.246;2022-12-18T15:44:23;56.40;;;19.52;;
1753;SDS011;58380;48.312;9.246;2022-12-18T15:46:50;61.88;;;20.85;;
1753;SDS011;58380;48.312;9.246;2022-12-18T15:49:15;57.40;;;21.47;;
1753;SDS011;58380;48.312;9.246;2022-12-18T15:51:41;56.30;;;22.30;;
1753;SDS011;58380;48.312;9.246;2022-12-18T15:54:08;51.25;;;20.73;;
1753;SDS011;58380;48.312;9.246;2022-12-18T15:56:38;59.08;;;21.52;;
1753;SDS011;58380;48.312;9.246;2022-12-18T15:59:23;65.68;;;21.02;;
1753;SDS011;58380;48.312;9.246;2022-12-18T16:01:49;54.28;;;20.52;;
1753;SDS011;58380;48.312;9.246;2022-12-18T16:04:19;51.88;;;19.58;;
1753;SDS011;58380;48.312;9.246;2022-12-18T16:06:47;56.15;;;21.55;;
1753;SDS011;58380;48.312;9.246;2022-12-18T16:09:13;51.90;;;18.90;;
1753;SDS011;58380;48.312;9.246;2022-12-18T16:11:39;57.90;;;20.67;;
1753;SDS011;58380;48.312;9.246;2022-12-18T16:14:20;53.67;;;20.00;;
1753;SDS011;58380;48.312;9.246;2022-12-18T16:16:49;57.63;;;21.35;;
1753;SDS011;58380;48.312;9.246;2022-12-18T16:19:18;60.00;;;20.45;;
1753;SDS011;58380;48.312;9.246;2022-12-18T16:21:45;62.03;;;21.47;;
1753;SDS011;58380;48.312;9.246;2022-12-18T16:24:15;57.15;;;20.75;;
1753;SDS011;58380;48.312;9.246;2022-12-18T16:26:44;56.10;;;21.48;;
1753;SDS011;58380;48.312;9.246;2022-12-18T16:29:10;65.65;;;20.73;;
1753;SDS011;58380;48.312;9.246;2022-12-18T16:31:36;58.80;;;20.27;;
1753;SDS011;58380;48.312;9.246;2022-12-18T16:36:56;55.63;;;19.58;;
1753;SDS011;58380;48.312;9.246;2022-12-18T16:39:23;66.18;;;20.92;;
1753;SDS011;58380;48.312;9.246;2022-12-18T16:41:49;64.18;;;22.23;;
1753;SDS011;58380;48.312;9.246;2022-12-18T16:44:14;65.83;;;22.23;;
1753;SDS011;58380;48.312;9.246;2022-12-18T16:46:40;60.17;;;22.35;;
1753;SDS011;58380;48.312;9.246;2022-12-18T16:49:11;63.35;;;23.52;;
1753;SDS011;58380;48.312;9.246;2022-12-18T16:51:38;69.57;;;22.77;;
1753;SDS011;58380;48.312;9.246;2022-12-18T16:54:03;64.93;;;20.77;;
1753;SDS011;58380;48.312;9.246;2022-12-18T16:56:30;57.40;;;20.52;;
1753;SDS011;58380;48.312;9.246;2022-12-18T16:58:56;70.72;;;23.52;;
1753;SDS011;58380;48.312;9.246;2022-12-18T17:01:25;80.63;;;27.10;;
1753;SDS011;58380;48.312;9.246;2022-12-18T17:04:03;97.47;;;33.50;;
1753;SDS011;58380;48.312;9.246;2022-12-18T17:09:00;85.65;;;30.27;;
1753;SDS011;58380;48.312;9.246;2022-12-18T17:11:30;71.60;;;24.05;;
1753;SDS011;58380;48.312;9.246;2022-12-18T17:13:58;71.47;;;24.20;;
1753;SDS011;58380;48.312;9.246;2022-12-18T17:16:24;63.58;;;23.08;;
1753;SDS011;58380;48.312;9.246;2022-12-18T17:18:54;67.18;;;24.40;;
1753;SDS011;58380;48.312;9.246;2022-12-18T17:21:19;75.55;;;25.95;;
1753;SDS011;58380;48.312;9.246;2022-12-18T17:23:44;70.93;;;25.23;;
1753;SDS011;58380;48.312;9.246;2022-12-18T17:26:10;90.23;;;30.87;;
1753;SDS011;58380;48.312;9.246;2022-12-18T17:28:37;78.50;;;26.63;;
1753;SDS011;58380;48.312;9.246;2022-12-18T17:31:12;69.68;;;25.27;;
1753;SDS011;58380;48.312;9.246;2022-12-18T17:33:41;62.50;;;23.00;;
1753;SDS011;58380;48.312;9.246;2022-12-18T17:36:07;69.25;;;24.02;;
1753;SDS011;58380;48.312;9.246;2022-12-18T17:38:34;69.78;;;23.55;;
1753;SDS011;58380;48.312;9.246;2022-12-18T17:41:07;66.15;;;22.23;;
1753;SDS011;58380;48.312;9.246;2022-12-18T17:43:35;66.90;;;22.38;;
1753;SDS011;58380;48.312;9.246;2022-12-18T17:46:06;65.15;;;22.65;;
1753;SDS011;58380;48.312;9.246;2022-12-18T17:48:32;71.53;;;22.83;;
1753;SDS011;58380;48.312;9.246;2022-12-18T17:51:01;80.03;;;27.83;;
1753;SDS011;58380;48.312;9.246;2022-12-18T17:53:29;74.28;;;23.55;;
1753;SDS011;58380;48.312;9.246;2022-12-18T17:55:55;65.03;;;23.50;;
1753;SDS011;58380;48.312;9.246;2022-12-18T17:58:24;67.65;;;23.88;;
1753;SDS011;58380;48.312;9.246;2022-12-18T18:00:50;64.40;;;22.92;;
1753;SDS011;58380;48.312;9.246;2022-12-18T18:03:16;70.33;;;24.03;;
1753;SDS011;58380;48.312;9.246;2022-12-18T18:05:41;69.83;;;23.63;;
1753;SDS011;58380;48.312;9.246;2022-12-18T18:08:06;65.37;;;23.90;;
1753;SDS011;58380;48.312;9.246;2022-12-18T18:10:35;68.13;;;21.45;;
1753;SDS011;58380;48.312;9.246;2022-12-18T18:13:03;65.15;;;24.00;;
1753;SDS011;58380;48.312;9.246;2022-12-18T18:15:55;71.95;;;24.55;;
1753;SDS011;58380;48.312;9.246;2022-12-18T18:18:21;67.07;;;22.60;;
1753;SDS011;58380;48.312;9.246;2022-12-18T18:20:48;68.97;;;23.88;;
1753;SDS011;58380;48.312;9.246;2022-12-18T18:23:13;62.83;;;22.33;;
1753;SDS011;58380;48.312;9.246;2022-12-18T18:25:41;72.70;;;23.30;;
1753;SDS011;58380;48.312;9.246;2022-12-18T18:28:07;76.00;;;25.63;;
1753;SDS011;58380;48.312;9.246;2022-12-18T18:30:34;67.83;;;23.03;;
1753;SDS011;58380;48.312;9.246;2022-12-18T18:33:01;72.07;;;24.08;;
1753;SDS011;58380;48.312;9.246;2022-12-18T18:35:26;70.33;;;23.10;;
1753;SDS011;58380;48.312;9.246;2022-12-18T18:37:51;64.00;;;21.43;;
1753;SDS011;58380;48.312;9.246;2022-12-18T18:40:17;68.77;;;22.33;;
1753;SDS011;58380;48.312;9.246;2022-12-18T18:42:42;74.37;;;22.87;;
1753;SDS011;58380;48.312;9.246;2022-12-18T18:45:08;67.27;;;21.23;;
1753;SDS011;58380;48.312;9.246;2022-12-18T18:49:59;61.10;;;23.13;;
1753;SDS011;58380;48.312;9.246;2022-12-18T18:52:25;64.30;;;22.43;;
1753;SDS011;58380;48.312;9.246;2022-12-18T18:54:50;62.43;;;23.20;;
1753;SDS011;58380;48.312;9.246;2022-12-18T18:57:15;66.70;;;23.20;;
1753;SDS011;58380;48.312;9.246;2022-12-18T18:59:41;60.67;;;21.70;;
1753;SDS011;58380;48.312;9.246;2022-12-18T19:02:13;66.95;;;24.00;;
1753;SDS011;58380;48.312;9.246;2022-12-18T19:04:41;73.65;;;24.45;;
1753;SDS011;58380;48.312;9.246;2022-12-18T19:07:07;67.80;;;23.45;;
1753;SDS011;58380;48.312;9.246;2022-12-18T19:09:33;61.17;;;23.27;;
1753;SDS011;58380;48.312;9.246;2022-12-18T19:12:00;68.03;;;22.85;;
1753;SDS011;58380;48.312;9.246;2022-12-18T19:14:45;74.22;;;24.85;;
1753;SDS011;58380;48.312;9.246;2022-12-18T19:17:11;64.93;;;24.35;;
1753;SDS011;58380;48.312;9.246;2022-12-18T19:19:37;77.40;;;25.55;;
1753;SDS011;58380;48.312;9.246;2022-12-18T19:22:03;69.93;;;25.67;;
1753;SDS011;58380;48.312;9.246;2022-12-18T19:24:28;92.10;;;30.67;;
1753;SDS011;58380;48.312;9.246;2022-12-18T19:26:53;69.27;;;25.27;;
1753;SDS011;58380;48.312;9.246;2022-12-18T19:29:19;75.97;;;26.57;;
1753;SDS011;58380;48.312;9.246;2022-12-18T19:31:44;72.93;;;25.70;;
1753;SDS011;58380;48.312;9.246;2022-12-18T19:34:10;77.67;;;26.53;;
1753;SDS011;58380;48.312;9.246;2022-12-18T19:36:36;82.40;;;25.48;;
1753;SDS011;58380;48.312;9.246;2022-12-18T19:39:14;88.18;;;26.85;;
1753;SDS011;58380;48.312;9.246;2022-12-18T19:41:42;85.45;;;27.88;;
1753;SDS011;58380;48.312;9.246;2022-12-18T19:44:09;82.18;;;28.02;;
1753;SDS011;58380;48.312;9.246;2022-12-18T19:46:37;93.90;;;30.15;;
1753;SDS011;58380;48.312;9.246;2022-12-18T19:49:03;95.57;;;28.88;;
1753;SDS011;58380;48.312;9.246;2022-12-18T19:51:30;91.47;;;29.73;;
1753;SDS011;58380;48.312;9.246;2022-12-18T19:53:57;91.05;;;29.33;;
1753;SDS011;58380;48.312;9.246;2022-12-18T19:56:25;93.05;;;28.50;;
1753;SDS011;58380;48.312;9.246;2022-12-18T19:58:55;110.25;;;34.13;;
1753;SDS011;58380;48.312;9.246;2022-12-18T20:01:21;85.65;;;29.30;;
1753;SDS011;58380;48.312;9.246;2022-12-18T20:03:48;86.80;;;28.27;;
1753;SDS011;58380;48.312;9.246;2022-12-18T20:06:28;94.57;;;32.42;;
1753;SDS011;58380;48.312;9.246;2022-12-18T20:08:58;89.63;;;28.55;;
1753;SDS011;58380;48.312;9.246;2022-12-18T20:11:28;79.53;;;25.60;;
1753;SDS011;58380;48.312;9.246;2022-12-18T20:13:55;74.78;;;25.05;;
1753;SDS011;58380;48.312;9.246;2022-12-18T20:16:22;73.53;;;24.70;;
1753;SDS011;58380;48.312;9.246;2022-12-18T20:18:47;71.72;;;25.27;;
1753;SDS011;58380;48.312;9.246;2022-12-18T20:21:13;69.15;;;24.17;;
1753;SDS011;58380;48.312;9.246;2022-12-18T20:23:39;65.50;;;22.65;;
1753;SDS011;58380;48.312;9.246;2022-12-18T20:26:04;66.10;;;23.85;;
1753;SDS011;58380;48.312;9.246;2022-12-18T20:28:30;62.30;;;22.05;;
1753;SDS011;58380;48.312;9.246;2022-12-18T20:31:03;62.67;;;21.67;;
1753;SDS011;58380;48.312;9.246;2022-12-18T20:33:32;62.72;;;22.52;;
1753;SDS011;58380;48.312;9.246;2022-12-18T20:36:03;62.67;;;22.67;;
1753;SDS011;58380;48.312;9.246;2022-12-18T20:38:32;70.28;;;23.00;;
1753;SDS011;58380;48.312;9.246;2022-12-18T20:40:59;66.90;;;23.55;;
1753;SDS011;58380;48.312;9.246;2022-12-18T20:43:28;61.08;;;22.13;;
1753;SDS011;58380;48.312;9.246;2022-12-18T20:46:04;89.63;;;28.80;;
1753;SDS011;58380;48.312;9.246;2022-12-18T20:48:32;74.93;;;26.88;;
1753;SDS011;58380;48.312;9.246;2022-12-18T20:51:07;71.13;;;25.25;;
1753;SDS011;58380;48.312;9.246;2022-12-18T20:53:36;79.47;;;26.92;;
1753;SDS011;58380;48.312;9.246;2022-12-18T20:56:10;68.45;;;23.13;;
1753;SDS011;58380;48.312;9.246;2022-12-18T20:58:42;75.38;;;24.90;;
1753;SDS011;58380;48.312;9.246;2022-12-18T21:01:11;75.05;;;24.67;;
1753;SDS011;58380;48.312;9.246;2022-12-18T21:03:40;68.82;;;23.42;;
1753;SDS011;58380;48.312;9.246;2022-12-18T21:06:08;73.15;;;22.25;;
1753;SDS011;58380;48.312;9.246;2022-12-18T21:11:14;72.85;;;24.27;;
1753;SDS011;58380;48.312;9.246;2022-12-18T21:14:05;64.63;;;24.80;;
1753;SDS011;58380;48.312;9.246;2022-12-18T21:16:34;70.22;;;25.38;;
1753;SDS011;58380;48.312;9.246;2022-12-18T21:18:59;73.47;;;25.55;;
1753;SDS011;58380;48.312;9.246;2022-12-18T21:21:25;63.83;;;22.98;;
1753;SDS011;58380;48.312;9.246;2022-12-18T21:23:50;72.90;;;22.57;;
1753;SDS011;58380;48.312;9.246;2022-12-18T21:28:51;71.50;;;24.45;;
1753;SDS011;58380;48.312;9.246;2022-12-18T21:31:20;77.55;;;26.98;;
1753;SDS011;58380;48.312;9.246;2022-12-18T21:33:47;79.53;;;26.00;;
1753;SDS011;58380;48.312;9.246;2022-12-18T21:36:14;70.63;;;24.10;;
1753;SDS011;58380;48.312;9.246;2022-12-18T21:38:39;63.85;;;22.35;;
1753;SDS011;58380;48.312;9.246;2022-12-18T21:41:05;57.38;;;22.23;;
1753;SDS011;58380;48.312;9.246;2022-12-18T21:43:33;62.92;;;22.08;;
1753;SDS011;58380;48.312;9.246;2022-12-18T21:46:19;71.82;;;23.83;;
1753;SDS011;58380;48.312;9.246;2022-12-18T21:48:45;66.55;;;23.23;;
1753;SDS011;58380;48.312;9.246;2022-12-18T21:51:11;63.10;;;21.80;;
1753;SDS011;58380;48.312;9.246;2022-12-18T21:53:36;66.68;;;22.65;;
1753;SDS011;58380;48.312;9.246;2022-12-18T21:56:02;67.25;;;22.42;;
1753;SDS011;58380;48.312;9.246;2022-12-18T21:58:27;76.05;;;25.00;;
1753;SDS011;58380;48.312;9.246;2022-12-18T22:00:53;69.27;;;23.80;;
1753;SDS011;58380;48.312;9.246;2022-12-18T22:03:19;75.30;;;25.30;;
1753;SDS011;58380;48.312;9.246;2022-12-18T22:05:45;80.57;;;24.85;;
1753;SDS011;58380;48.312;9.246;2022-12-18T22:08:10;72.68;;;23.83;;
1753;SDS011;58380;48.312;9.246;2022-12-18T22:10:36;76.03;;;24.30;;
1753;SDS011;58380;48.312;9.246;2022-12-18T22:13:02;74.10;;;24.20;;
1753;SDS011;58380;48.312;9.246;2022-12-18T22:15:28;76.07;;;24.05;;
1753;SDS011;58380;48.312;9.246;2022-12-18T22:17:54;75.07;;;23.83;;
1753;SDS011;58380;48.312;9.246;2022-12-18T22:20:19;71.50;;;23.80;;
1753;SDS011;58380;48.312;9.246;2022-12-18T22:22:45;64.67;;;23.43;;
1753;SDS011;58380;48.312;9.246;2022-12-18T22:25:10;72.03;;;24.27;;
1753;SDS011;58380;48.312;9.246;2022-12-18T22:27:36;61.33;;;22.37;;
